Badger, California
Current Conditions -  °F | °C
As of 8:35 PM on Tuesday 21 Oct 2014 (Local Time) from KVIS Reporting Station
Clear Clear  
Wind Chill: 63°   Ceiling: Unl
Heat Index: 63°   Visibility: 10mi
Dew Point: 45°   Wind: 3mph
Humidity: 52%   Direction: 300°WNW
Pressure: 29.99"   Gusts: NA
Location:  36.63°N, 119.01°W
Report Text: KVIS 220335Z 30003KT 10SM CLR 17/07 A2999 RMK AO1
Loading
Personal Weather Stations






























Interactive Weather Map
Tropical Storm Tracking
New forecast layout! Learn more

10-Day Weather Forecast

Advertisements
Track Severe Weather on mobile